createdAt,value
2023-03-29T00:00:24.192Z,-1.60
2023-03-29T00:03:27.727Z,-1.50
2023-03-29T00:06:32.811Z,-1.50
2023-03-29T00:09:36.150Z,-0.70
2023-03-29T00:12:40.458Z,-1.50
2023-03-29T00:15:45.113Z,-1.50
2023-03-29T00:18:48.434Z,-1.50
2023-03-29T00:21:51.923Z,-1.50
2023-03-29T00:24:55.122Z,-1.30
2023-03-29T00:27:58.415Z,-0.80
2023-03-29T00:31:11.695Z,-1.40
2023-03-29T00:34:14.893Z,-1.40
2023-03-29T00:37:18.789Z,-1.40
2023-03-29T00:40:22.239Z,-1.50
2023-03-29T00:43:25.921Z,-1.50
2023-03-29T00:46:32.564Z,-1.50
2023-03-29T00:49:36.229Z,-1.60
2023-03-29T00:52:42.003Z,-1.60
2023-03-29T00:55:49.826Z,-1.60
2023-03-29T00:58:59.208Z,-1.60
2023-03-29T01:02:06.959Z,-0.20
2023-03-29T01:05:16.060Z,-1.50
2023-03-29T01:08:25.690Z,-1.50
2023-03-29T01:11:33.558Z,-1.50
2023-03-29T01:14:42.869Z,-1.50
2023-03-29T01:17:50.715Z,-1.60
2023-03-29T01:21:06.554Z,-1.60
2023-03-29T01:24:42.064Z,-1.70
2023-03-29T01:27:54.377Z,-1.80
2023-03-29T01:31:02.271Z,-1.90
2023-03-29T01:34:11.153Z,-1.90
2023-03-29T01:37:21.875Z,-1.80
2023-03-29T01:40:27.260Z,-1.70
2023-03-29T01:43:36.200Z,-1.80
2023-03-29T01:46:46.499Z,-1.90
2023-03-29T01:49:58.164Z,-1.90
2023-03-29T01:53:05.620Z,-1.90
2023-03-29T01:56:14.842Z,-2.00
2023-03-29T01:59:22.545Z,-2.10
2023-03-29T02:02:27.766Z,-2.20
2023-03-29T02:05:32.436Z,-2.20
2023-03-29T02:08:36.955Z,-2.30
2023-03-29T02:11:42.978Z,-2.30
2023-03-29T02:14:47.958Z,-2.00
2023-03-29T02:17:52.069Z,-2.40
2023-03-29T02:21:00.197Z,-2.30
2023-03-29T02:24:07.753Z,-2.40
2023-03-29T02:27:10.945Z,-2.40
2023-03-29T02:30:20.857Z,-1.40
2023-03-29T02:33:32.852Z,-2.50
2023-03-29T02:36:41.699Z,-2.70
2023-03-29T02:39:47.616Z,-2.50
2023-03-29T02:42:51.654Z,-2.50
2023-03-29T02:45:57.027Z,-2.60
2023-03-29T02:49:01.016Z,-1.20
2023-03-29T02:52:08.245Z,-2.60
2023-03-29T02:55:15.690Z,-2.60
2023-03-29T02:58:19.007Z,-2.70
2023-03-29T03:01:23.920Z,-2.60
2023-03-29T03:04:27.520Z,-2.60
2023-03-29T03:07:31.385Z,-2.70
2023-03-29T03:10:35.200Z,-2.80
2023-03-29T03:13:39.994Z,-2.80
2023-03-29T03:16:45.134Z,-2.80
2023-03-29T03:19:48.497Z,-2.80
2023-03-29T03:22:51.823Z,-2.80
2023-03-29T03:25:58.110Z,-2.80
2023-03-29T03:29:01.953Z,-2.80
2023-03-29T03:32:29.452Z,-2.90
2023-03-29T03:36:10.160Z,-2.90
2023-03-29T03:39:13.370Z,-3.00
2023-03-29T03:42:16.642Z,-2.90
2023-03-29T03:45:21.722Z,-3.00
2023-03-29T03:48:38.865Z,-2.90
2023-03-29T03:51:47.797Z,-2.90
2023-03-29T03:54:51.870Z,-2.90
2023-03-29T03:58:15.985Z,-3.00
2023-03-29T04:01:19.685Z,-3.00
2023-03-29T04:04:35.757Z,-3.10
2023-03-29T04:07:44.015Z,-3.00
2023-03-29T04:10:57.521Z,-3.00
2023-03-29T04:14:05.930Z,-3.00
2023-03-29T04:17:29.605Z,-3.00
2023-03-29T04:20:37.150Z,-3.10
2023-03-29T04:23:40.395Z,-3.10
2023-03-29T04:26:43.962Z,-3.10
2023-03-29T04:29:55.270Z,-3.10
2023-03-29T04:33:21.348Z,-3.10
2023-03-29T04:36:32.345Z,-3.00
2023-03-29T04:39:35.951Z,-2.60
2023-03-29T04:42:44.780Z,-3.00
2023-03-29T04:45:48.738Z,-3.00
2023-03-29T04:49:08.852Z,-2.80
2023-03-29T04:52:22.401Z,-2.40
2023-03-29T04:55:31.851Z,-2.80
2023-03-29T04:58:40.821Z,-2.80
2023-03-29T05:01:44.130Z,-2.30
2023-03-29T05:04:48.146Z,-1.90
2023-03-29T05:07:55.333Z,-2.70
2023-03-29T05:11:04.491Z,-2.70
2023-03-29T05:14:09.297Z,-1.10
2023-03-29T05:17:12.598Z,-1.00
2023-03-29T05:20:16.098Z,-1.10
2023-03-29T05:23:23.015Z,-2.50
2023-03-29T05:26:47.540Z,-1.50
2023-03-29T05:29:50.719Z,-2.30
2023-03-29T05:33:09.129Z,-2.30
2023-03-29T05:36:15.100Z,-2.20
2023-03-29T05:39:27.938Z,-1.80
2023-03-29T05:42:39.514Z,-2.10
2023-03-29T05:49:31.042Z,-2.00
2023-03-29T05:52:41.048Z,-1.90
2023-03-29T05:55:46.619Z,-1.80
2023-03-29T05:58:53.666Z,-0.80
2023-03-29T06:02:00.401Z,-1.70
2023-03-29T06:05:04.764Z,-1.70
2023-03-29T06:08:16.123Z,-1.60
2023-03-29T06:11:47.621Z,-1.60
2023-03-29T06:15:04.700Z,-1.40
2023-03-29T06:18:20.659Z,-1.10
2023-03-29T06:21:24.484Z,-0.70
2023-03-29T06:24:27.750Z,-1.30
2023-03-29T06:27:39.167Z,-1.10
2023-03-29T06:30:43.678Z,-0.40
2023-03-29T06:33:47.284Z,-1.10
2023-03-29T06:37:12.879Z,-0.90
2023-03-29T06:40:19.097Z,-0.90
2023-03-29T06:43:24.838Z,-0.80
2023-03-29T06:46:42.430Z,0.70
2023-03-29T06:49:45.803Z,-0.70
2023-03-29T06:53:08.756Z,-0.60
2023-03-29T06:56:12.457Z,-0.50
2023-03-29T06:59:21.461Z,-0.40
2023-03-29T07:02:35.769Z,-0.30
2023-03-29T07:05:50.387Z,-0.30
2023-03-29T07:08:53.620Z,-0.30
2023-03-29T07:12:11.252Z,-0.20
2023-03-29T07:15:16.599Z,-0.20
2023-03-29T07:18:46.974Z,0.00
2023-03-29T07:22:11.980Z,0.20
2023-03-29T07:25:23.986Z,0.30
2023-03-29T07:28:27.202Z,0.40
2023-03-29T07:31:33.442Z,0.30
2023-03-29T07:34:56.907Z,0.40
2023-03-29T07:38:11.291Z,0.40
2023-03-29T07:41:19.250Z,0.40
2023-03-29T07:44:24.743Z,0.50
2023-03-29T07:47:29.845Z,0.60
2023-03-29T07:50:33.507Z,0.80
2023-03-29T07:53:39.837Z,0.90
2023-03-29T07:56:51.667Z,0.90
2023-03-29T08:00:15.819Z,1.00
2023-03-29T08:03:25.399Z,1.00
2023-03-29T08:06:28.656Z,1.30
2023-03-29T08:09:32.040Z,1.30
2023-03-29T08:12:35.439Z,1.30
2023-03-29T08:15:40.193Z,1.20
2023-03-29T08:18:55.015Z,1.30
2023-03-29T08:22:02.336Z,1.60
2023-03-29T08:25:16.596Z,1.70
2023-03-29T08:28:24.271Z,1.70
2023-03-29T08:31:28.205Z,1.80
2023-03-29T08:34:35.035Z,1.90
2023-03-29T08:37:58.133Z,2.10
2023-03-29T08:41:01.614Z,2.20
2023-03-29T08:44:21.668Z,2.20
2023-03-29T08:47:38.723Z,2.20
2023-03-29T08:50:49.751Z,2.30
2023-03-29T08:53:57.156Z,2.40
2023-03-29T08:57:28.072Z,2.30
2023-03-29T09:00:41.167Z,2.50
2023-03-29T09:03:48.444Z,2.70
2023-03-29T09:07:03.149Z,2.80
2023-03-29T09:10:17.217Z,2.80
2023-03-29T09:13:35.877Z,3.00
2023-03-29T09:16:46.647Z,3.20
2023-03-29T09:19:57.022Z,3.20
2023-03-29T09:23:15.090Z,3.30
2023-03-29T09:26:49.400Z,3.30
2023-03-29T09:30:14.583Z,3.40
2023-03-29T09:33:31.896Z,3.30
2023-03-29T09:36:46.330Z,3.50
2023-03-29T09:39:53.068Z,3.60
2023-03-29T09:43:00.915Z,3.40
2023-03-29T09:46:11.982Z,3.60
2023-03-29T09:49:20.284Z,3.70
2023-03-29T09:52:24.470Z,3.70
2023-03-29T09:55:52.510Z,3.70
2023-03-29T09:59:17.890Z,3.70
2023-03-29T10:02:22.543Z,3.70
2023-03-29T10:05:29.558Z,3.80
2023-03-29T10:08:40.777Z,4.00
2023-03-29T10:11:49.204Z,4.20
2023-03-29T10:14:55.330Z,4.40
2023-03-29T10:18:04.177Z,4.30
2023-03-29T10:21:08.304Z,4.30
2023-03-29T10:24:11.728Z,4.10
2023-03-29T10:27:19.308Z,4.30
2023-03-29T10:30:25.069Z,4.10
2023-03-29T10:33:32.742Z,4.30
2023-03-29T10:36:37.037Z,4.50
2023-03-29T10:39:50.097Z,4.70
2023-03-29T10:42:54.890Z,4.70
2023-03-29T10:46:16.332Z,4.90
2023-03-29T10:49:21.786Z,4.90
2023-03-29T10:52:25.589Z,4.90
2023-03-29T10:55:36.018Z,4.90
2023-03-29T10:58:57.468Z,5.20
2023-03-29T11:02:37.124Z,5.50
2023-03-29T11:05:47.347Z,5.70
2023-03-29T11:08:57.864Z,5.90
2023-03-29T11:12:14.971Z,6.20
2023-03-29T11:15:37.496Z,6.20
2023-03-29T11:19:06.742Z,6.00
2023-03-29T11:22:17.547Z,6.00
2023-03-29T11:25:29.797Z,6.40
2023-03-29T11:28:42.166Z,7.10
2023-03-29T11:31:58.640Z,7.30
2023-03-29T11:35:12.311Z,7.90
2023-03-29T11:38:24.123Z,8.20
2023-03-29T11:41:30.970Z,8.20
2023-03-29T11:44:36.356Z,8.20
2023-03-29T11:47:44.448Z,8.30
2023-03-29T11:50:56.078Z,9.60
2023-03-29T11:54:05.612Z,10.00
2023-03-29T11:57:16.326Z,10.40
2023-03-29T12:00:24.586Z,10.40
2023-03-29T12:03:38.845Z,10.30
2023-03-29T12:06:48.661Z,10.30
2023-03-29T12:09:54.808Z,10.30
2023-03-29T12:13:05.697Z,9.80
2023-03-29T12:16:16.802Z,9.80
2023-03-29T12:19:25.782Z,10.60
2023-03-29T12:22:29.354Z,11.00
2023-03-29T12:25:42.926Z,10.10
2023-03-29T12:29:07.185Z,10.10
2023-03-29T12:32:29.401Z,9.80
2023-03-29T12:35:58.957Z,9.90
2023-03-29T12:39:38.889Z,10.30
2023-03-29T12:43:08.838Z,11.40
2023-03-29T12:46:32.938Z,11.40
2023-03-29T12:49:39.301Z,10.60
2023-03-29T12:52:44.122Z,10.90
2023-03-29T12:55:56.577Z,10.60
2023-03-29T12:59:25.676Z,11.00
2023-03-29T13:02:38.017Z,11.70
2023-03-29T13:05:41.962Z,11.40
2023-03-29T13:08:47.951Z,11.60
2023-03-29T13:11:54.328Z,10.90
2023-03-29T13:15:00.365Z,11.70
2023-03-29T13:18:12.612Z,12.00
2023-03-29T13:21:22.866Z,11.30
2023-03-29T13:24:47.972Z,11.40
2023-03-29T13:27:58.788Z,11.10
2023-03-29T13:31:08.599Z,11.40
2023-03-29T13:34:24.914Z,11.80
2023-03-29T13:37:38.926Z,11.50
2023-03-29T13:40:59.385Z,11.10
2023-03-29T13:44:02.909Z,10.60
2023-03-29T13:47:16.432Z,10.00
2023-03-29T13:50:30.556Z,9.40
2023-03-29T13:53:37.459Z,9.60
2023-03-29T13:56:51.661Z,9.20
2023-03-29T14:00:00.696Z,8.90
2023-03-29T14:03:08.642Z,9.30
2023-03-29T14:06:15.765Z,9.30
2023-03-29T14:09:19.848Z,9.40
2023-03-29T14:12:24.519Z,9.40
2023-03-29T14:15:43.979Z,9.10
2023-03-29T14:18:51.220Z,9.30
2023-03-29T14:21:55.069Z,8.90
2023-03-29T14:25:04.632Z,8.40
2023-03-29T14:28:21.108Z,8.40
2023-03-29T14:31:26.148Z,9.20
2023-03-29T14:34:29.566Z,9.40
2023-03-29T14:37:32.871Z,9.90
2023-03-29T14:40:36.458Z,9.70
2023-03-29T14:43:41.992Z,10.10
2023-03-29T14:46:46.785Z,10.30
2023-03-29T14:49:50.795Z,10.70
2023-03-29T14:52:56.023Z,10.60
2023-03-29T14:56:00.923Z,10.30
2023-03-29T14:59:17.802Z,10.50
2023-03-29T15:02:26.673Z,10.80
2023-03-29T15:05:40.266Z,12.20
2023-03-29T15:08:58.080Z,11.50
2023-03-29T15:12:08.568Z,11.50
2023-03-29T15:15:15.368Z,12.10
2023-03-29T15:18:33.469Z,12.10
2023-03-29T15:21:39.715Z,11.70
2023-03-29T15:24:48.542Z,11.50
2023-03-29T15:27:59.573Z,11.00
2023-03-29T15:31:12.539Z,11.10
2023-03-29T15:34:26.699Z,10.20
2023-03-29T15:37:30.744Z,10.20
2023-03-29T15:40:34.402Z,10.30
2023-03-29T15:43:38.171Z,10.70
2023-03-29T15:46:42.921Z,10.50
2023-03-29T15:49:48.939Z,10.30
2023-03-29T15:52:59.961Z,9.50
2023-03-29T15:56:18.372Z,8.70
2023-03-29T15:59:21.833Z,8.80
2023-03-29T16:02:26.767Z,8.90
2023-03-29T16:05:30.212Z,8.90
2023-03-29T16:08:33.703Z,8.60
2023-03-29T16:11:37.210Z,8.30
2023-03-29T16:14:43.748Z,8.10
2023-03-29T16:17:51.028Z,7.50
2023-03-29T16:20:54.530Z,7.20
2023-03-29T16:23:57.896Z,7.00
2023-03-29T16:27:03.442Z,6.80
2023-03-29T16:30:08.866Z,6.60
2023-03-29T16:33:14.185Z,6.60
2023-03-29T16:36:18.253Z,6.40
2023-03-29T16:39:21.923Z,6.20
2023-03-29T16:42:28.255Z,6.00
2023-03-29T16:45:31.799Z,5.80
2023-03-29T16:48:36.819Z,5.60
2023-03-29T16:51:40.471Z,5.30
2023-03-29T16:54:45.685Z,5.20
2023-03-29T16:57:50.962Z,5.00
2023-03-29T17:00:56.327Z,4.80
2023-03-29T17:04:01.607Z,4.50
2023-03-29T17:07:05.081Z,4.40
2023-03-29T17:10:09.270Z,4.20
2023-03-29T17:13:14.060Z,3.90
2023-03-29T17:16:17.500Z,3.70
2023-03-29T17:19:22.281Z,3.50
2023-03-29T17:22:26.058Z,3.30
2023-03-29T17:25:29.968Z,3.20
2023-03-29T17:28:33.323Z,3.10
2023-03-29T17:31:38.038Z,2.90
2023-03-29T17:34:42.831Z,2.80
2023-03-29T17:37:46.211Z,2.60
2023-03-29T17:40:53.915Z,2.50
2023-03-29T17:43:57.279Z,2.40
2023-03-29T17:47:00.928Z,2.40
2023-03-29T17:50:06.781Z,2.30
2023-03-29T17:53:10.203Z,2.20
2023-03-29T17:56:13.909Z,2.20
2023-03-29T17:59:17.476Z,2.10
2023-03-29T18:02:22.651Z,2.30
2023-03-29T18:05:27.966Z,2.20
2023-03-29T18:08:31.785Z,2.10
2023-03-29T18:11:36.368Z,2.10
2023-03-29T18:14:39.712Z,2.00
2023-03-29T18:17:43.637Z,2.00
2023-03-29T18:20:49.727Z,2.00
2023-03-29T18:23:56.804Z,1.90
2023-03-29T18:27:02.122Z,1.80
2023-03-29T18:30:08.757Z,1.90
2023-03-29T18:33:12.154Z,1.70
2023-03-29T18:36:17.113Z,1.70
2023-03-29T18:39:20.575Z,1.40
2023-03-29T18:42:23.842Z,1.40
2023-03-29T18:45:27.150Z,1.30
2023-03-29T18:48:33.594Z,1.20
2023-03-29T18:51:38.329Z,1.10
2023-03-29T18:54:41.858Z,1.00
2023-03-29T18:57:45.380Z,1.00
2023-03-29T19:00:48.633Z,1.20
2023-03-29T19:03:54.011Z,1.10
2023-03-29T19:06:59.801Z,1.00
2023-03-29T19:10:03.617Z,1.00
2023-03-29T19:13:07.519Z,0.90
2023-03-29T19:16:12.118Z,0.90
2023-03-29T19:19:15.621Z,0.80
2023-03-29T19:22:20.302Z,0.70
2023-03-29T19:25:23.670Z,0.60
2023-03-29T19:28:27.338Z,0.50
2023-03-29T19:31:31.794Z,0.40
2023-03-29T19:34:35.621Z,0.30
2023-03-29T19:37:40.511Z,0.30
2023-03-29T19:40:46.115Z,0.30
2023-03-29T19:43:51.932Z,0.30
2023-03-29T19:46:55.348Z,0.30
2023-03-29T19:49:58.978Z,0.30
2023-03-29T19:53:03.645Z,0.30
2023-03-29T19:56:10.719Z,0.30
2023-03-29T19:59:15.395Z,0.30
2023-03-29T20:02:19.877Z,-1.20
2023-03-29T20:05:24.046Z,0.30
2023-03-29T20:08:28.677Z,0.40
2023-03-29T20:11:31.953Z,0.30
2023-03-29T20:14:37.950Z,0.30
2023-03-29T20:17:41.598Z,0.30
2023-03-29T20:20:45.210Z,0.30
2023-03-29T20:23:49.899Z,0.30
2023-03-29T20:26:53.445Z,0.30
2023-03-29T20:29:57.247Z,0.30
2023-03-29T20:33:00.623Z,0.40
2023-03-29T20:36:04.671Z,0.40
2023-03-29T20:39:09.457Z,0.70
2023-03-29T20:42:14.115Z,0.50
2023-03-29T20:45:19.517Z,0.50
2023-03-29T20:48:24.737Z,0.60
2023-03-29T20:51:30.448Z,0.60
2023-03-29T20:54:35.489Z,0.60
2023-03-29T20:57:40.560Z,0.70
2023-03-29T21:00:44.131Z,0.80
2023-03-29T21:03:47.490Z,0.70
2023-03-29T21:06:50.750Z,0.80
2023-03-29T21:09:55.610Z,0.80
2023-03-29T21:13:00.531Z,0.90
2023-03-29T21:16:04.387Z,1.20
2023-03-29T21:19:07.813Z,1.10
2023-03-29T21:22:13.639Z,1.10
2023-03-29T21:25:18.362Z,1.10
2023-03-29T21:28:21.561Z,1.10
2023-03-29T21:31:25.017Z,1.00
2023-03-29T21:34:28.284Z,1.10
2023-03-29T21:37:31.578Z,1.20
2023-03-29T21:40:38.949Z,1.20
2023-03-29T21:43:42.149Z,1.30
2023-03-29T21:46:45.836Z,1.30
2023-03-29T21:49:49.132Z,1.20
2023-03-29T21:52:55.376Z,1.30
2023-03-29T21:55:59.950Z,1.30
2023-03-29T21:59:03.241Z,1.30
2023-03-29T22:02:06.741Z,1.30
2023-03-29T22:05:10.438Z,1.50
2023-03-29T22:08:13.635Z,1.60
2023-03-29T22:11:18.519Z,1.60
2023-03-29T22:14:21.992Z,1.80
2023-03-29T22:17:26.533Z,1.90
2023-03-29T22:20:30.154Z,2.10
2023-03-29T22:23:33.637Z,2.20
2023-03-29T22:26:38.296Z,2.30
2023-03-29T22:29:41.460Z,2.40
2023-03-29T22:32:44.948Z,2.40
2023-03-29T22:35:48.502Z,2.40
2023-03-29T22:38:52.716Z,2.50
2023-03-29T22:41:57.253Z,2.50
2023-03-29T22:45:00.457Z,2.50
2023-03-29T22:48:03.674Z,2.40
2023-03-29T22:51:07.346Z,2.40
2023-03-29T22:54:10.565Z,2.30
2023-03-29T22:57:15.582Z,2.30
2023-03-29T23:00:31.179Z,2.20
2023-03-29T23:03:34.655Z,2.30
2023-03-29T23:06:38.071Z,2.30
2023-03-29T23:09:41.497Z,2.30
2023-03-29T23:12:46.055Z,2.20
2023-03-29T23:15:50.221Z,2.10
2023-03-29T23:18:53.440Z,2.20
2023-03-29T23:21:56.761Z,2.20
2023-03-29T23:25:00.376Z,2.30
2023-03-29T23:28:05.122Z,2.20
2023-03-29T23:31:10.525Z,2.30
2023-03-29T23:34:14.436Z,2.20
2023-03-29T23:37:17.570Z,2.20
2023-03-29T23:40:21.296Z,2.30
2023-03-29T23:43:27.096Z,2.30
2023-03-29T23:46:31.322Z,2.20
2023-03-29T23:49:34.599Z,2.30
2023-03-29T23:52:38.130Z,2.30
2023-03-29T23:55:41.267Z,2.30
2023-03-29T23:58:46.052Z,2.40
